createdAt,value
2023-03-08T00:00:06.717Z,3.36
2023-03-08T00:02:37.510Z,3.24
2023-03-08T00:05:04.329Z,3.22
2023-03-08T00:07:30.847Z,3.53
2023-03-08T00:09:57.397Z,3.31
2023-03-08T00:16:12.302Z,3.20
2023-03-08T00:18:38.851Z,3.40
2023-03-08T00:21:06.751Z,3.33
2023-03-08T00:23:33.615Z,3.28
2023-03-08T00:26:00.217Z,3.42
2023-03-08T00:28:27.085Z,3.50
2023-03-08T00:30:57.844Z,3.56
2023-03-08T00:33:24.471Z,3.56
2023-03-08T00:35:54.850Z,3.55
2023-03-08T00:38:21.373Z,3.71
2023-03-08T00:40:47.779Z,3.79
2023-03-08T00:43:14.274Z,3.86
2023-03-08T00:45:40.710Z,3.85
2023-03-08T00:48:07.119Z,3.78
2023-03-08T00:50:33.641Z,3.78
2023-03-08T00:53:00.100Z,3.67
2023-03-08T00:55:26.606Z,3.61
2023-03-08T00:57:53.156Z,3.77
2023-03-08T01:00:19.775Z,3.95
2023-03-08T01:02:46.284Z,3.72
2023-03-08T01:05:13.640Z,3.69
2023-03-08T01:07:40.124Z,3.74
2023-03-08T01:10:07.382Z,3.79
2023-03-08T01:12:34.265Z,3.79
2023-03-08T01:15:00.763Z,3.73
2023-03-08T01:17:27.321Z,3.73
2023-03-08T01:19:53.820Z,3.71
2023-03-08T01:22:20.307Z,3.82
2023-03-08T01:24:47.417Z,3.68
2023-03-08T01:27:14.580Z,3.74
2023-03-08T01:29:41.934Z,4.12
2023-03-08T01:32:09.826Z,3.82
2023-03-08T01:34:39.424Z,3.60
2023-03-08T01:37:05.909Z,3.32
2023-03-08T01:39:32.472Z,3.26
2023-03-08T01:41:59.039Z,3.35
2023-03-08T01:44:25.541Z,3.42
2023-03-08T01:46:53.253Z,3.37
2023-03-08T01:49:19.767Z,3.58
2023-03-08T01:51:51.983Z,3.68
2023-03-08T01:54:38.647Z,3.65
2023-03-08T01:57:17.445Z,4.03
2023-03-08T01:59:44.770Z,3.73
2023-03-08T02:02:11.356Z,3.61
2023-03-08T02:04:39.342Z,3.65
2023-03-08T02:07:09.567Z,3.59
2023-03-08T02:09:36.608Z,3.51
2023-03-08T02:12:06.166Z,3.63
2023-03-08T02:14:32.862Z,3.51
2023-03-08T02:16:59.329Z,3.71
2023-03-08T02:19:44.361Z,3.80
2023-03-08T02:22:11.403Z,3.84
2023-03-08T02:24:38.781Z,4.04
2023-03-08T02:27:14.728Z,4.25
2023-03-08T02:29:41.201Z,4.10
2023-03-08T02:32:08.068Z,4.03
2023-03-08T02:34:36.415Z,4.12
2023-03-08T02:37:03.232Z,3.96
2023-03-08T02:39:29.773Z,3.93
2023-03-08T02:41:56.253Z,3.94
2023-03-08T02:44:22.764Z,4.08
2023-03-08T02:46:49.343Z,4.08
2023-03-08T02:49:16.245Z,4.04
2023-03-08T02:51:42.767Z,4.02
2023-03-08T02:54:09.372Z,3.80
2023-03-08T02:56:37.293Z,3.86
2023-03-08T02:59:04.860Z,3.82
2023-03-08T03:01:31.379Z,3.77
2023-03-08T03:03:59.350Z,3.79
2023-03-08T03:06:25.871Z,3.87
2023-03-08T03:08:55.508Z,4.00
2023-03-08T03:11:22.953Z,4.14
2023-03-08T03:13:55.521Z,4.14
2023-03-08T03:16:22.623Z,3.88
2023-03-08T03:18:49.053Z,3.59
2023-03-08T03:21:15.553Z,3.71
2023-03-08T03:23:42.218Z,3.71
2023-03-08T03:26:13.619Z,3.78
2023-03-08T03:28:40.735Z,3.63
2023-03-08T03:31:08.486Z,3.62
2023-03-08T03:33:35.189Z,3.76
2023-03-08T03:36:02.415Z,3.82
2023-03-08T03:38:30.062Z,3.86
2023-03-08T03:41:00.443Z,3.77
2023-03-08T03:43:27.288Z,3.65
2023-03-08T03:45:58.141Z,3.73
2023-03-08T03:48:25.560Z,3.79
2023-03-08T03:50:56.746Z,3.67
2023-03-08T03:53:23.789Z,3.62
2023-03-08T03:55:52.667Z,3.96
2023-03-08T03:58:19.242Z,3.67
2023-03-08T04:00:46.130Z,3.30
2023-03-08T04:03:22.119Z,3.17
2023-03-08T04:05:48.808Z,3.17
2023-03-08T04:08:15.617Z,3.11
2023-03-08T04:10:42.876Z,3.14
2023-03-08T04:13:12.616Z,3.17
2023-03-08T04:15:40.427Z,3.12
2023-03-08T04:18:10.904Z,3.08
2023-03-08T04:20:41.283Z,3.20
2023-03-08T04:23:08.130Z,3.06
2023-03-08T04:25:38.964Z,2.71
2023-03-08T04:28:07.048Z,2.86
2023-03-08T04:30:33.664Z,2.85
2023-03-08T04:33:01.777Z,2.85
2023-03-08T04:35:36.166Z,2.81
2023-03-08T04:38:03.650Z,2.69
2023-03-08T04:40:30.216Z,2.70
2023-03-08T04:42:59.827Z,2.49
2023-03-08T04:45:32.528Z,2.41
2023-03-08T04:48:02.914Z,2.27
2023-03-08T04:50:31.222Z,2.34
2023-03-08T04:52:58.117Z,2.30
2023-03-08T04:55:25.110Z,2.21
2023-03-08T04:57:51.993Z,2.05
2023-03-08T05:00:18.650Z,1.97
2023-03-08T05:02:45.971Z,2.01
2023-03-08T05:05:16.576Z,2.06
2023-03-08T05:07:44.176Z,1.99
2023-03-08T05:10:11.767Z,1.93
2023-03-08T05:12:40.620Z,1.90
2023-03-08T05:15:07.751Z,1.90
2023-03-08T05:17:34.624Z,1.97
2023-03-08T05:20:01.234Z,1.94
2023-03-08T05:22:38.873Z,1.91
2023-03-08T05:25:12.041Z,1.90
2023-03-08T05:27:39.047Z,1.93
2023-03-08T05:30:07.929Z,1.98
2023-03-08T05:32:35.345Z,1.89
2023-03-08T05:35:01.906Z,2.16
2023-03-08T05:37:34.085Z,2.05
2023-03-08T05:40:05.927Z,2.12
2023-03-08T05:42:34.753Z,1.84
2023-03-08T05:45:01.927Z,1.87
2023-03-08T05:47:33.350Z,2.08
2023-03-08T05:50:00.003Z,1.99
2023-03-08T05:52:29.080Z,2.17
2023-03-08T05:54:57.860Z,2.12
2023-03-08T05:57:24.396Z,1.98
2023-03-08T05:59:51.012Z,2.21
2023-03-08T06:02:20.797Z,2.52
2023-03-08T06:04:50.002Z,2.50
2023-03-08T06:07:19.781Z,2.42
2023-03-08T06:09:51.845Z,2.33
2023-03-08T06:12:18.525Z,2.55
2023-03-08T06:14:48.880Z,2.61
2023-03-08T06:17:20.025Z,2.75
2023-03-08T06:19:49.190Z,2.81
2023-03-08T06:22:17.158Z,2.86
2023-03-08T06:24:44.920Z,3.08
2023-03-08T06:27:11.998Z,3.09
2023-03-08T06:29:41.054Z,3.44
2023-03-08T06:32:08.652Z,3.79
2023-03-08T06:34:36.013Z,3.86
2023-03-08T06:37:02.731Z,4.10
2023-03-08T06:39:31.576Z,4.40
2023-03-08T06:42:02.621Z,4.63
2023-03-08T06:44:29.942Z,5.07
2023-03-08T06:46:56.641Z,5.45
2023-03-08T06:49:24.365Z,5.73
2023-03-08T06:51:50.969Z,6.08
2023-03-08T06:54:17.729Z,6.49
2023-03-08T06:56:46.440Z,6.34
2023-03-08T06:59:13.826Z,6.56
2023-03-08T07:01:40.874Z,6.16
2023-03-08T07:04:07.996Z,6.81
2023-03-08T07:06:34.576Z,6.87
2023-03-08T07:09:01.002Z,7.22
2023-03-08T07:11:29.515Z,7.69
2023-03-08T07:13:56.843Z,7.59
2023-03-08T07:16:23.717Z,8.18
2023-03-08T07:18:50.226Z,7.93
2023-03-08T07:21:16.842Z,7.89
2023-03-08T07:23:43.361Z,7.19
2023-03-08T07:26:10.768Z,6.77
2023-03-08T07:28:37.217Z,6.61
2023-03-08T07:31:03.781Z,6.56
2023-03-08T07:33:30.310Z,6.22
2023-03-08T07:35:58.788Z,6.63
2023-03-08T07:38:25.250Z,6.31
2023-03-08T07:40:56.011Z,7.45
2023-03-08T07:43:22.987Z,8.09
2023-03-08T07:45:58.896Z,8.74
2023-03-08T07:48:25.374Z,9.13
2023-03-08T07:50:51.938Z,8.75
2023-03-08T07:53:18.372Z,9.12
2023-03-08T07:55:44.901Z,9.34
2023-03-08T07:58:11.457Z,9.51
2023-03-08T08:00:37.928Z,9.16
2023-03-08T08:03:04.495Z,9.23
2023-03-08T08:05:31.038Z,9.63
2023-03-08T08:07:57.486Z,9.88
2023-03-08T08:10:24.065Z,10.07
2023-03-08T08:12:50.549Z,10.29
2023-03-08T08:15:17.446Z,10.07
2023-03-08T08:17:43.852Z,10.58
2023-03-08T08:20:10.886Z,10.49
2023-03-08T08:22:37.738Z,10.24
2023-03-08T08:25:05.454Z,10.00
2023-03-08T08:27:31.879Z,10.02
2023-03-08T08:29:59.390Z,10.14
2023-03-08T08:32:26.224Z,10.09
2023-03-08T08:34:52.807Z,10.01
2023-03-08T08:37:19.966Z,10.12
2023-03-08T08:39:46.433Z,9.43
2023-03-08T08:42:12.851Z,9.26
2023-03-08T08:44:39.332Z,9.91
2023-03-08T08:47:05.873Z,10.11
2023-03-08T08:49:32.317Z,10.30
2023-03-08T08:51:58.765Z,10.22
2023-03-08T08:54:25.247Z,9.85
2023-03-08T08:56:51.775Z,9.71
2023-03-08T08:59:18.283Z,10.27
2023-03-08T09:01:44.894Z,9.76
2023-03-08T09:04:13.685Z,10.07
2023-03-08T09:06:40.469Z,9.76
2023-03-08T09:09:06.936Z,10.17
2023-03-08T09:11:34.678Z,10.15
2023-03-08T09:14:02.549Z,10.29
2023-03-08T09:16:30.844Z,10.06
2023-03-08T09:18:58.155Z,10.24
2023-03-08T09:21:25.372Z,9.51
2023-03-08T09:23:52.064Z,9.63
2023-03-08T09:26:18.622Z,10.31
2023-03-08T09:28:45.135Z,10.00
2023-03-08T09:31:14.988Z,10.65
2023-03-08T09:33:43.020Z,10.49
2023-03-08T09:36:09.647Z,10.55
2023-03-08T09:38:36.745Z,10.68
2023-03-08T09:41:15.356Z,10.28
2023-03-08T09:44:04.360Z,10.10
2023-03-08T09:46:34.160Z,10.05
2023-03-08T09:49:02.757Z,9.98
2023-03-08T09:51:33.676Z,10.02
2023-03-08T09:54:03.104Z,10.73
2023-03-08T09:56:37.620Z,10.34
2023-03-08T09:59:22.592Z,10.32
2023-03-08T10:02:07.871Z,10.77
2023-03-08T10:04:43.731Z,10.58
2023-03-08T10:07:25.378Z,10.33
2023-03-08T10:10:10.312Z,10.68
2023-03-08T10:12:48.832Z,10.41
2023-03-08T10:15:17.853Z,10.16
2023-03-08T10:17:44.398Z,9.80
2023-03-08T10:20:24.999Z,10.00
2023-03-08T10:22:56.120Z,10.60
2023-03-08T10:25:28.792Z,10.58
2023-03-08T10:27:56.094Z,10.98
2023-03-08T10:30:32.651Z,10.85
2023-03-08T10:33:00.673Z,10.48
2023-03-08T10:35:31.673Z,10.62
2023-03-08T10:37:58.170Z,10.30
2023-03-08T10:40:24.695Z,10.12
2023-03-08T10:43:03.607Z,10.50
2023-03-08T10:45:30.454Z,11.09
2023-03-08T10:48:01.265Z,10.67
2023-03-08T10:50:37.450Z,10.64
2023-03-08T10:53:15.879Z,11.11
2023-03-08T10:55:47.090Z,10.42
2023-03-08T10:58:43.051Z,10.41
2023-03-08T11:01:29.864Z,10.51
2023-03-08T11:03:59.658Z,11.11
2023-03-08T11:06:26.269Z,10.96
2023-03-08T11:08:54.310Z,11.17
2023-03-08T11:11:21.110Z,11.13
2023-03-08T11:13:48.868Z,11.67
2023-03-08T11:16:27.197Z,11.21
2023-03-08T11:18:59.840Z,11.35
2023-03-08T11:21:38.487Z,11.72
2023-03-08T11:24:18.439Z,11.57
2023-03-08T11:26:51.164Z,12.21
2023-03-08T11:29:40.784Z,12.42
2023-03-08T11:32:10.483Z,12.39
2023-03-08T11:34:45.799Z,12.30
2023-03-08T11:37:21.762Z,12.29
2023-03-08T11:40:14.233Z,12.71
2023-03-08T11:42:49.602Z,13.18
2023-03-08T11:45:36.389Z,14.90
2023-03-08T11:48:12.530Z,14.59
2023-03-08T11:50:47.574Z,15.34
2023-03-08T11:53:14.007Z,14.50
2023-03-08T11:55:59.231Z,14.83
2023-03-08T11:58:32.384Z,16.33
2023-03-08T12:01:05.031Z,16.88
2023-03-08T12:03:34.996Z,16.58
2023-03-08T12:06:07.372Z,17.05
2023-03-08T12:08:39.955Z,17.14
2023-03-08T12:11:29.012Z,17.19
2023-03-08T12:14:00.246Z,16.36
2023-03-08T12:16:26.835Z,16.47
2023-03-08T12:19:06.826Z,16.81
2023-03-08T12:21:38.444Z,18.21
2023-03-08T12:24:15.535Z,16.65
2023-03-08T12:26:45.349Z,16.65
2023-03-08T12:29:19.666Z,17.13
2023-03-08T12:31:48.931Z,16.83
2023-03-08T12:34:34.325Z,18.02
2023-03-08T12:37:00.828Z,17.90
2023-03-08T12:39:27.560Z,17.18
2023-03-08T12:42:09.386Z,16.00
2023-03-08T12:44:36.914Z,15.48
2023-03-08T12:47:18.409Z,15.96
2023-03-08T12:49:52.712Z,15.15
2023-03-08T12:52:19.267Z,15.46
2023-03-08T12:55:08.947Z,16.41
2023-03-08T12:57:47.276Z,16.62
2023-03-08T13:00:19.868Z,15.93
2023-03-08T13:02:46.619Z,15.66
2023-03-08T13:05:21.099Z,15.09
2023-03-08T13:08:07.874Z,16.65
2023-03-08T13:10:41.559Z,16.79
2023-03-08T13:13:15.642Z,18.13
2023-03-08T13:15:47.196Z,18.02
2023-03-08T13:18:20.362Z,18.06
2023-03-08T13:20:54.826Z,18.46
2023-03-08T13:23:27.425Z,17.70
2023-03-08T13:25:53.910Z,17.72
2023-03-08T13:28:28.747Z,17.33
2023-03-08T13:31:01.163Z,17.87
2023-03-08T13:33:29.204Z,17.49
2023-03-08T13:36:03.545Z,17.91
2023-03-08T13:38:31.579Z,17.98
2023-03-08T13:40:58.498Z,17.20
2023-03-08T13:43:26.196Z,17.92
2023-03-08T13:45:54.362Z,17.92
2023-03-08T13:48:21.870Z,17.26
2023-03-08T13:50:52.317Z,17.03
2023-03-08T13:53:22.805Z,17.01
2023-03-08T13:55:52.188Z,17.79
2023-03-08T13:58:21.526Z,17.30
2023-03-08T14:00:57.253Z,16.81
2023-03-08T14:03:23.883Z,17.48
2023-03-08T14:05:50.350Z,17.34
2023-03-08T14:08:26.858Z,17.71
2023-03-08T14:10:53.357Z,17.93
2023-03-08T14:13:24.361Z,17.42
2023-03-08T14:15:53.161Z,17.14
2023-03-08T14:18:24.237Z,17.14
2023-03-08T14:21:01.349Z,16.99
2023-03-08T14:23:28.101Z,17.44
2023-03-08T14:25:57.685Z,17.05
2023-03-08T14:28:34.315Z,17.54
2023-03-08T14:31:00.901Z,17.96
2023-03-08T14:33:41.809Z,18.26
2023-03-08T14:36:09.832Z,18.30
2023-03-08T14:38:36.508Z,17.87
2023-03-08T14:41:06.222Z,17.45
2023-03-08T14:43:33.080Z,16.84
2023-03-08T14:46:01.868Z,17.37
2023-03-08T14:48:35.393Z,17.51
2023-03-08T14:51:06.407Z,17.20
2023-03-08T14:53:40.322Z,17.07
2023-03-08T14:56:11.248Z,16.83
2023-03-08T14:58:39.230Z,17.13
2023-03-08T15:01:05.732Z,17.05
2023-03-08T15:03:32.735Z,16.77
2023-03-08T15:06:11.087Z,16.10
2023-03-08T15:08:37.523Z,15.51
2023-03-08T15:11:04.035Z,14.75
2023-03-08T15:13:30.471Z,15.21
2023-03-08T15:15:56.935Z,15.23
2023-03-08T15:18:23.428Z,15.15
2023-03-08T15:20:50.405Z,15.12
2023-03-08T15:23:22.932Z,14.82
2023-03-08T15:25:49.954Z,15.03
2023-03-08T15:28:17.289Z,14.66
2023-03-08T15:30:43.890Z,14.47
2023-03-08T15:33:10.553Z,14.86
2023-03-08T15:35:37.928Z,14.22
2023-03-08T15:38:04.530Z,14.10
2023-03-08T15:40:32.006Z,14.11
2023-03-08T15:42:58.597Z,14.43
2023-03-08T15:45:25.093Z,13.86
2023-03-08T15:47:58.573Z,13.75
2023-03-08T15:50:25.693Z,13.82
2023-03-08T15:52:52.513Z,13.77
2023-03-08T15:55:18.952Z,13.91
2023-03-08T15:57:45.377Z,13.85
2023-03-08T16:00:13.209Z,13.58
2023-03-08T16:02:40.153Z,13.61
2023-03-08T16:05:08.059Z,13.55
2023-03-08T16:07:34.714Z,13.25
2023-03-08T16:10:01.596Z,13.09
2023-03-08T16:12:28.075Z,13.50
2023-03-08T16:14:58.170Z,13.37
2023-03-08T16:17:27.889Z,13.22
2023-03-08T16:19:54.325Z,13.21
2023-03-08T16:22:21.005Z,13.15
2023-03-08T16:24:47.652Z,13.10
2023-03-08T16:27:14.243Z,12.88
2023-03-08T16:29:40.722Z,12.89
2023-03-08T16:32:07.459Z,12.85
2023-03-08T16:34:34.342Z,12.50
2023-03-08T16:37:00.780Z,12.50
2023-03-08T16:39:27.395Z,12.10
2023-03-08T16:41:53.837Z,12.01
2023-03-08T16:44:24.759Z,11.91
2023-03-08T16:46:51.256Z,11.94
2023-03-08T16:49:18.689Z,12.14
2023-03-08T16:51:45.284Z,12.24
2023-03-08T16:54:12.553Z,12.25
2023-03-08T16:56:40.615Z,12.25
2023-03-08T16:59:07.132Z,12.21
2023-03-08T17:01:33.733Z,12.19
2023-03-08T17:04:01.187Z,12.09
2023-03-08T17:06:29.319Z,11.76
2023-03-08T17:08:56.569Z,11.88
2023-03-08T17:11:24.439Z,12.01
2023-03-08T17:13:53.338Z,11.57
2023-03-08T17:16:20.742Z,11.65
2023-03-08T17:18:48.362Z,11.52
2023-03-08T17:21:15.082Z,11.57
2023-03-08T17:23:41.626Z,11.68
2023-03-08T17:26:09.296Z,11.69
2023-03-08T17:28:35.984Z,11.56
2023-03-08T17:31:02.496Z,11.56
2023-03-08T17:33:29.047Z,11.68
2023-03-08T17:35:56.508Z,11.47
2023-03-08T17:38:23.117Z,11.20
2023-03-08T17:40:49.581Z,11.04
2023-03-08T17:43:16.478Z,10.79
2023-03-08T17:45:42.923Z,10.87
2023-03-08T17:48:11.193Z,10.61
2023-03-08T17:50:37.614Z,10.47
2023-03-08T17:53:04.180Z,10.28
2023-03-08T17:55:30.687Z,10.21
2023-03-08T17:57:57.161Z,10.17
2023-03-08T18:00:24.487Z,10.01
2023-03-08T18:02:50.997Z,9.88
2023-03-08T18:05:17.522Z,9.96
2023-03-08T18:07:45.335Z,9.70
2023-03-08T18:10:11.990Z,9.63
2023-03-08T18:12:38.438Z,9.66
2023-03-08T18:15:05.183Z,9.44
2023-03-08T18:17:34.046Z,9.72
2023-03-08T18:20:01.411Z,9.82
2023-03-08T18:22:27.927Z,9.63
2023-03-08T18:24:54.376Z,9.41
2023-03-08T18:27:20.804Z,9.23
2023-03-08T18:29:47.262Z,9.13
2023-03-08T18:32:13.729Z,9.56
2023-03-08T18:34:40.362Z,9.37
2023-03-08T18:37:06.844Z,9.56
2023-03-08T18:39:33.347Z,9.38
2023-03-08T18:42:01.231Z,9.74
2023-03-08T18:44:27.756Z,9.09
2023-03-08T18:46:54.289Z,9.15
2023-03-08T18:49:21.008Z,8.70
2023-03-08T18:51:47.576Z,8.77
2023-03-08T18:54:17.218Z,8.71
2023-03-08T18:56:44.367Z,8.44
2023-03-08T18:59:12.542Z,8.35
2023-03-08T19:01:39.081Z,8.35
2023-03-08T19:04:07.007Z,8.04
2023-03-08T19:06:34.397Z,8.15
2023-03-08T19:09:02.109Z,8.15
2023-03-08T19:11:28.880Z,7.88
2023-03-08T19:13:55.374Z,7.95
2023-03-08T19:16:21.841Z,7.91
2023-03-08T19:18:48.931Z,7.95
2023-03-08T19:21:23.202Z,7.85
2023-03-08T19:23:49.714Z,7.93
2023-03-08T19:26:36.953Z,7.83
2023-03-08T19:29:12.534Z,7.84
2023-03-08T19:31:41.492Z,7.69
2023-03-08T19:34:08.313Z,7.54
2023-03-08T19:36:37.923Z,7.49
2023-03-08T19:39:05.850Z,7.47
2023-03-08T19:41:33.723Z,7.52
2023-03-08T19:44:00.211Z,7.49
2023-03-08T19:46:26.870Z,7.28
2023-03-08T19:48:54.636Z,7.57
2023-03-08T19:51:21.162Z,7.82
2023-03-08T19:53:47.649Z,7.89
2023-03-08T19:56:15.710Z,7.86
2023-03-08T19:58:42.269Z,7.97
2023-03-08T20:01:09.660Z,9.23
2023-03-08T20:03:36.553Z,8.48
2023-03-08T20:06:03.761Z,8.21
2023-03-08T20:08:30.345Z,8.32
2023-03-08T20:10:57.189Z,8.19
2023-03-08T20:13:23.779Z,8.06
2023-03-08T20:15:50.254Z,7.93
2023-03-08T20:18:16.700Z,8.15
2023-03-08T20:20:44.652Z,8.26
2023-03-08T20:23:11.245Z,8.25
2023-03-08T20:25:38.177Z,8.31
2023-03-08T20:28:04.684Z,8.26
2023-03-08T20:30:31.243Z,8.29
2023-03-08T20:32:57.800Z,8.21
2023-03-08T20:35:24.266Z,8.35
2023-03-08T20:37:50.796Z,8.28
2023-03-08T20:40:18.035Z,8.12
2023-03-08T20:42:44.573Z,8.06
2023-03-08T20:45:11.276Z,8.12
2023-03-08T20:47:37.888Z,8.13
2023-03-08T20:50:04.858Z,8.17
2023-03-08T20:52:31.404Z,8.11
2023-03-08T20:54:57.873Z,7.95
2023-03-08T20:57:24.298Z,7.97
2023-03-08T20:59:50.810Z,8.62
2023-03-08T21:02:17.387Z,8.63
2023-03-08T21:04:43.918Z,8.93
2023-03-08T21:07:10.469Z,9.05
2023-03-08T21:09:36.916Z,9.01
2023-03-08T21:12:04.689Z,8.96
2023-03-08T21:14:31.245Z,9.31
2023-03-08T21:16:57.731Z,9.61
2023-03-08T21:19:24.200Z,9.77
2023-03-08T21:21:51.354Z,9.95
2023-03-08T21:24:19.270Z,10.20
2023-03-08T21:26:45.880Z,10.16
2023-03-08T21:29:13.600Z,10.09
2023-03-08T21:31:41.559Z,10.05
2023-03-08T21:34:08.528Z,10.05
2023-03-08T21:36:36.688Z,9.83
2023-03-08T21:39:03.605Z,9.62
2023-03-08T21:41:31.533Z,9.61
2023-03-08T21:43:58.352Z,9.54
2023-03-08T21:46:25.331Z,9.53
2023-03-08T21:48:51.894Z,9.49
2023-03-08T21:51:18.394Z,9.15
2023-03-08T21:53:44.863Z,9.00
2023-03-08T21:56:12.761Z,8.90
2023-03-08T21:58:39.275Z,8.99
2023-03-08T22:01:06.682Z,9.00
2023-03-08T22:03:34.708Z,8.98
2023-03-08T22:06:01.153Z,8.92
2023-03-08T22:08:27.799Z,9.19
2023-03-08T22:10:54.857Z,9.59
2023-03-08T22:13:21.593Z,9.83
2023-03-08T22:15:48.226Z,9.98
2023-03-08T22:18:14.804Z,10.34
2023-03-08T22:20:41.255Z,10.64
2023-03-08T22:23:07.759Z,10.86
2023-03-08T22:25:34.372Z,10.93
2023-03-08T22:28:00.838Z,11.07
2023-03-08T22:30:27.403Z,11.17
2023-03-08T22:32:54.612Z,11.21
2023-03-08T22:35:22.208Z,11.24
2023-03-08T22:37:48.981Z,11.16
2023-03-08T22:40:16.923Z,11.03
2023-03-08T22:42:43.409Z,11.24
2023-03-08T22:45:10.020Z,11.22
2023-03-08T22:47:36.436Z,11.19
2023-03-08T22:50:03.916Z,11.25
2023-03-08T22:52:30.477Z,11.20
2023-03-08T22:54:56.996Z,11.25
2023-03-08T22:57:23.745Z,11.38
2023-03-08T22:59:50.213Z,11.36
2023-03-08T23:02:16.656Z,11.43
2023-03-08T23:04:43.180Z,11.40
2023-03-08T23:07:09.747Z,11.39
2023-03-08T23:09:36.537Z,11.29
2023-03-08T23:12:04.873Z,11.24
2023-03-08T23:14:32.169Z,11.34
2023-03-08T23:16:58.943Z,11.31
2023-03-08T23:19:25.436Z,11.25
2023-03-08T23:21:51.902Z,11.30
2023-03-08T23:24:18.779Z,11.40
2023-03-08T23:26:46.195Z,11.43
2023-03-08T23:29:13.421Z,11.51
2023-03-08T23:31:43.994Z,11.65
2023-03-08T23:34:12.505Z,11.54
2023-03-08T23:36:38.970Z,11.53
2023-03-08T23:39:05.462Z,11.55
2023-03-08T23:41:32.375Z,11.50
2023-03-08T23:43:59.979Z,11.44
2023-03-08T23:46:26.926Z,11.56
2023-03-08T23:48:55.241Z,11.54
2023-03-08T23:51:22.639Z,11.43
2023-03-08T23:53:50.101Z,11.27
2023-03-08T23:56:19.811Z,11.30
2023-03-08T23:58:47.970Z,11.22
